Time;durP1;ratioP1;P1;durP2;ratioP2;P2;SDS_P1;SDS_P2;PMS_P1;PMS_P2;Temp;Humidity;BMP_temperature;BMP_pressure;BME280_temperature;BME280_humidity;BME280_pressure;Samples;Min_cycle;Max_cycle;Signal;HPM_P1;HPM_P2
2023/09/17 00:01:43;;;;;;;9.20;8.27;;;18.30;99.90;;;;;;7304072;32;20128;-55
2023/09/17 00:05:45;;;;;;;8.77;7.70;;;18.20;99.90;;;;;;7310945;32;20544;-56
2023/09/17 00:09:47;;;;;;;11.85;7.37;;;18.20;99.90;;;;;;7285977;32;20157;-56
2023/09/17 00:13:49;;;;;;;8.43;7.40;;;18.20;99.90;;;;;;7306276;32;20206;-55
2023/09/17 00:17:52;;;;;;;8.40;7.50;;;18.20;99.90;;;;;;7292809;32;20127;-55
2023/09/17 00:21:54;;;;;;;8.27;7.18;;;18.20;99.90;;;;;;7300232;32;20206;-55
2023/09/17 00:25:55;;;;;;;7.45;6.75;;;18.20;99.90;;;;;;7289094;32;20154;-55
2023/09/17 00:29:57;;;;;;;7.90;6.97;;;18.20;99.90;;;;;;7301766;32;20424;-54
2023/09/17 00:33:59;;;;;;;7.85;7.07;;;18.30;99.90;;;;;;7310954;32;20214;-55
2023/09/17 00:38:00;;;;;;;8.68;7.85;;;18.40;99.90;;;;;;7294707;32;20525;-55
2023/09/17 00:42:02;;;;;;;10.45;8.40;;;18.60;99.90;;;;;;7301330;32;20131;-55
2023/09/17 00:46:05;;;;;;;10.95;9.85;;;18.50;99.90;;;;;;7278116;32;20164;-55
2023/09/17 00:50:10;;;;;;;13.65;10.55;;;18.60;99.90;;;;;;7287830;32;20292;-56
2023/09/17 00:54:13;;;;;;;18.70;13.52;;;18.50;99.90;;;;;;7287143;32;20123;-55
2023/09/17 00:58:15;;;;;;;20.77;13.95;;;18.50;99.90;;;;;;7306131;32;20573;-55
2023/09/17 01:02:21;;;;;;;22.58;18.15;;;18.60;99.90;;;;;;7311466;32;20108;-55
2023/09/17 01:06:23;;;;;;;24.83;19.85;;;18.60;99.90;;;;;;7296954;32;20112;-55
2023/09/17 01:10:25;;;;;;;31.42;25.30;;;18.60;99.90;;;;;;7285608;32;20134;-55
2023/09/17 01:14:27;;;;;;;32.95;26.42;;;18.50;99.90;;;;;;7290977;32;20605;-56
2023/09/17 01:18:29;;;;;;;29.15;24.85;;;18.50;99.90;;;;;;7286587;32;20214;-55
2023/09/17 01:22:38;;;;;;;32.83;26.17;;;18.40;99.90;;;;;;7298553;32;20785;-56
2023/09/17 01:26:44;;;;;;;33.17;27.17;;;18.40;99.90;;;;;;7288857;32;20142;-55
2023/09/17 01:30:46;;;;;;;38.38;30.55;;;18.30;99.90;;;;;;7282471;32;20119;-55
2023/09/17 01:34:49;;;;;;;40.75;31.23;;;18.20;99.90;;;;;;7291345;32;20135;-55
2023/09/17 01:38:59;;;;;;;40.90;32.20;;;18.20;99.90;;;;;;7308701;32;20197;-55
2023/09/17 01:43:02;;;;;;;42.47;33.25;;;18.20;99.90;;;;;;7290408;32;20111;-55
2023/09/17 01:47:05;;;;;;;41.53;33.63;;;18.10;99.90;;;;;;7306044;32;20137;-55
2023/09/17 01:51:07;;;;;;;45.83;34.15;;;18.10;99.90;;;;;;7308760;32;20112;-54
2023/09/17 01:55:10;;;;;;;38.95;32.78;;;18.10;99.90;;;;;;7312099;32;20260;-55
2023/09/17 01:59:12;;;;;;;37.70;31.70;;;18.10;99.90;;;;;;7298043;32;20289;-55
2023/09/17 02:03:14;;;;;;;38.38;32.92;;;18.00;99.90;;;;;;7303163;32;20157;-55
2023/09/17 02:07:17;;;;;;;39.63;32.90;;;18.00;99.90;;;;;;7308366;32;20563;-55
2023/09/17 02:11:19;;;;;;;41.25;34.58;;;17.90;99.90;;;;;;7297927;32;20109;-55
2023/09/17 02:15:20;;;;;;;45.53;36.83;;;17.90;99.90;;;;;;7306785;32;20108;-55
2023/09/17 02:19:22;;;;;;;40.12;33.15;;;17.80;99.90;;;;;;7289695;32;20108;-55
2023/09/17 02:23:25;;;;;;;43.90;34.45;;;17.90;99.90;;;;;;7304619;32;20131;-55
2023/09/17 02:27:27;;;;;;;34.38;29.77;;;17.90;99.90;;;;;;7304639;32;20454;-55
2023/09/17 02:31:29;;;;;;;36.88;29.08;;;17.90;99.90;;;;;;7309553;32;20206;-55
2023/09/17 02:35:31;;;;;;;34.25;28.17;;;17.90;99.90;;;;;;7296542;32;20112;-55
2023/09/17 02:39:35;;;;;;;36.60;29.00;;;17.90;99.90;;;;;;7317246;32;20107;-56
2023/09/17 02:43:37;;;;;;;38.13;30.60;;;17.90;99.90;;;;;;7302017;32;20223;-55
2023/09/17 02:47:40;;;;;;;35.90;31.23;;;17.90;99.90;;;;;;7313854;32;20115;-55
2023/09/17 02:51:42;;;;;;;41.83;32.65;;;17.80;99.90;;;;;;7306967;32;20521;-56
2023/09/17 02:55:44;;;;;;;43.22;32.10;;;17.80;99.90;;;;;;7270252;32;20107;-55
2023/09/17 02:59:46;;;;;;;39.70;32.70;;;17.80;99.90;;;;;;7299674;32;20565;-55
2023/09/17 03:03:48;;;;;;;41.53;33.28;;;17.80;99.90;;;;;;7298860;32;20256;-55
2023/09/17 03:07:50;;;;;;;43.03;33.83;;;17.70;99.90;;;;;;7312762;32;20116;-56
2023/09/17 03:11:52;;;;;;;41.95;33.85;;;17.70;99.90;;;;;;7276054;32;20150;-55
2023/09/17 03:15:58;;;;;;;48.03;37.38;;;17.70;99.90;;;;;;7310438;32;20289;-56
2023/09/17 03:20:00;;;;;;;50.15;37.55;;;17.60;99.90;;;;;;7288362;32;20307;-55
2023/09/17 03:24:02;;;;;;;49.55;37.25;;;17.60;99.90;;;;;;7301138;32;21638;-55
2023/09/17 03:28:04;;;;;;;47.88;35.45;;;17.50;99.90;;;;;;7291043;32;20250;-55
2023/09/17 03:32:06;;;;;;;43.13;34.50;;;17.50;99.90;;;;;;7308163;32;20457;-55
2023/09/17 03:36:07;;;;;;;44.90;34.80;;;17.50;99.90;;;;;;7304367;32;20138;-55
2023/09/17 03:40:12;;;;;;;42.65;32.78;;;17.50;99.90;;;;;;7290622;32;20709;-55
2023/09/17 03:44:14;;;;;;;40.63;32.53;;;17.50;99.90;;;;;;7304410;32;20470;-55
2023/09/17 03:48:17;;;;;;;35.13;27.75;;;17.60;99.90;;;;;;7292522;32;20699;-55
2023/09/17 03:52:19;;;;;;;32.97;26.75;;;17.50;99.90;;;;;;7283063;32;20137;-55
2023/09/17 03:56:21;;;;;;;33.72;27.25;;;17.60;99.90;;;;;;7310180;32;20153;-56
2023/09/17 04:00:23;;;;;;;33.10;27.75;;;17.60;99.90;;;;;;7287282;32;20222;-55
2023/09/17 04:04:25;;;;;;;36.95;29.45;;;17.60;99.90;;;;;;7283812;32;20161;-55
2023/09/17 04:08:27;;;;;;;35.00;27.33;;;17.50;99.90;;;;;;7303330;32;20096;-55
2023/09/17 04:12:29;;;;;;;37.13;30.55;;;17.50;99.90;;;;;;7297242;32;20126;-55
2023/09/17 04:16:31;;;;;;;39.67;32.22;;;17.40;99.90;;;;;;7312246;32;20142;-55
2023/09/17 04:20:34;;;;;;;39.78;32.85;;;17.40;99.90;;;;;;7311632;32;20313;-55
2023/09/17 04:24:38;;;;;;;45.40;35.53;;;17.40;99.90;;;;;;7285378;32;20127;-55
2023/09/17 04:28:40;;;;;;;49.53;36.40;;;17.40;99.90;;;;;;7306846;32;20664;-55
2023/09/17 04:32:43;;;;;;;38.92;30.73;;;17.30;99.90;;;;;;7293934;32;20581;-55
2023/09/17 04:36:45;;;;;;;39.40;29.15;;;17.30;99.90;;;;;;7297575;32;20412;-55
2023/09/17 04:40:47;;;;;;;34.60;28.40;;;17.30;99.90;;;;;;7283379;32;20109;-55
2023/09/17 04:44:49;;;;;;;36.25;29.58;;;17.30;99.90;;;;;;7305044;32;20857;-55
2023/09/17 04:48:51;;;;;;;30.58;25.65;;;17.40;99.90;;;;;;7300186;32;20116;-55
2023/09/17 04:52:53;;;;;;;34.80;27.40;;;17.40;99.90;;;;;;7296428;32;20568;-56
2023/09/17 04:56:55;;;;;;;34.22;27.10;;;17.40;99.90;;;;;;7294527;32;20118;-55
2023/09/17 05:00:57;;;;;;;30.48;25.17;;;17.40;99.90;;;;;;7302810;32;20119;-55
2023/09/17 05:04:59;;;;;;;31.60;24.83;;;17.40;99.90;;;;;;7292139;32;20129;-55
2023/09/17 05:09:00;;;;;;;34.42;28.70;;;17.40;99.90;;;;;;7308582;32;20314;-56
2023/09/17 05:13:02;;;;;;;32.08;25.42;;;17.40;99.90;;;;;;7277965;32;20186;-55
2023/09/17 05:17:05;;;;;;;33.45;26.77;;;17.40;99.90;;;;;;7305016;32;20112;-55
2023/09/17 05:21:07;;;;;;;34.05;27.55;;;17.40;99.90;;;;;;7316851;32;20112;-55
2023/09/17 05:25:09;;;;;;;37.08;28.55;;;17.50;99.90;;;;;;7303133;32;20211;-55
2023/09/17 05:29:15;;;;;;;33.38;27.17;;;17.40;99.90;;;;;;7304459;32;20118;-55
2023/09/17 05:33:17;;;;;;;44.17;32.07;;;17.40;99.90;;;;;;7306853;32;20115;-54
2023/09/17 05:37:19;;;;;;;40.08;29.55;;;17.40;99.90;;;;;;7309624;32;20104;-55
2023/09/17 05:41:20;;;;;;;39.13;28.45;;;17.40;99.90;;;;;;7316560;32;20129;-55
2023/09/17 05:45:23;;;;;;;36.35;28.42;;;17.30;99.90;;;;;;7294484;32;20270;-55
2023/09/17 05:49:25;;;;;;;33.05;28.25;;;17.40;99.90;;;;;;7299526;32;20413;-55
2023/09/17 05:53:27;;;;;;;37.17;29.40;;;17.40;99.90;;;;;;7296120;32;20100;-55
2023/09/17 05:57:29;;;;;;;34.83;27.08;;;17.40;99.90;;;;;;7309984;32;20182;-55
2023/09/17 06:01:31;;;;;;;36.28;28.58;;;17.40;99.90;;;;;;7296092;32;20438;-55
2023/09/17 06:05:33;;;;;;;33.22;25.12;;;17.50;99.90;;;;;;7298077;32;20207;-55
2023/09/17 06:09:35;;;;;;;34.30;26.83;;;17.50;99.90;;;;;;7299896;32;20176;-55
2023/09/17 06:13:37;;;;;;;31.37;24.15;;;17.50;99.90;;;;;;7287525;32;20246;-55
2023/09/17 06:17:40;;;;;;;33.22;25.25;;;17.60;99.90;;;;;;7303098;32;22215;-55
2023/09/17 06:21:42;;;;;;;33.35;26.37;;;17.60;99.90;;;;;;7305007;32;20437;-55
2023/09/17 06:25:43;;;;;;;31.37;25.45;;;17.60;99.90;;;;;;7284805;32;20108;-55
2023/09/17 06:29:45;;;;;;;26.85;21.52;;;17.70;99.90;;;;;;7300365;32;20108;-54
2023/09/17 06:33:47;;;;;;;25.75;20.17;;;17.80;99.90;;;;;;7294171;32;20100;-55
2023/09/17 06:37:49;;;;;;;19.33;16.40;;;18.00;99.90;;;;;;7299231;32;20148;-56
2023/09/17 06:41:51;;;;;;;20.40;15.30;;;18.10;99.90;;;;;;7294118;32;20200;-57
2023/09/17 06:45:53;;;;;;;16.15;13.68;;;18.30;99.90;;;;;;7303106;32;20095;-56
2023/09/17 06:49:55;;;;;;;13.32;11.80;;;18.50;99.90;;;;;;7299484;32;20530;-56
2023/09/17 06:53:56;;;;;;;13.05;11.63;;;18.70;99.90;;;;;;7271405;32;20096;-56
2023/09/17 06:57:58;;;;;;;12.25;10.25;;;18.80;99.90;;;;;;7302223;32;20217;-56
2023/09/17 07:02:00;;;;;;;13.73;9.82;;;18.90;99.90;;;;;;7297319;32;20275;-56
2023/09/17 07:06:02;;;;;;;11.75;10.02;;;18.90;99.90;;;;;;7295684;32;20226;-56
2023/09/17 07:10:04;;;;;;;10.45;9.27;;;19.00;99.90;;;;;;7292400;32;20127;-54
2023/09/17 07:14:09;;;;;;;11.65;9.45;;;19.10;99.90;;;;;;7294166;32;20122;-56
2023/09/17 07:18:12;;;;;;;11.52;9.50;;;19.10;99.90;;;;;;7297729;32;20162;-54
2023/09/17 07:22:14;;;;;;;11.40;9.63;;;19.20;99.90;;;;;;7298046;32;20479;-54
2023/09/17 07:26:19;;;;;;;13.25;9.27;;;19.20;99.90;;;;;;7294775;32;20235;-54
2023/09/17 07:30:21;;;;;;;10.30;9.18;;;19.20;99.90;;;;;;7295377;32;20843;-53
2023/09/17 07:34:24;;;;;;;11.65;10.32;;;19.10;99.90;;;;;;7293695;32;20219;-54
2023/09/17 07:38:26;;;;;;;12.50;10.45;;;19.20;99.90;;;;;;7301085;32;20517;-54
2023/09/17 07:42:28;;;;;;;10.10;8.95;;;19.10;99.90;;;;;;7296523;32;20254;-53
2023/09/17 07:46:30;;;;;;;10.50;9.48;;;19.30;99.90;;;;;;7297295;32;20091;-54
2023/09/17 07:50:32;;;;;;;13.00;9.25;;;19.30;99.90;;;;;;7279943;32;20184;-53
2023/09/17 07:54:39;;;;;;;10.70;9.60;;;19.30;99.90;;;;;;7300335;32;20492;-53
2023/09/17 07:58:40;;;;;;;13.13;9.32;;;19.40;99.90;;;;;;7294601;32;20267;-56
2023/09/17 08:02:44;;;;;;;11.68;9.95;;;19.40;99.90;;;;;;7292166;32;20170;-53
2023/09/17 08:06:48;;;;;;;12.48;9.30;;;19.50;99.90;;;;;;7295987;32;20650;-53
2023/09/17 08:10:50;;;;;;;10.85;9.65;;;19.60;99.90;;;;;;7296657;32;20167;-53
2023/09/17 08:14:52;;;;;;;11.10;8.57;;;19.60;99.90;;;;;;7293884;32;20247;-54
2023/09/17 08:18:54;;;;;;;11.27;9.00;;;19.70;99.90;;;;;;7292345;32;20349;-55
2023/09/17 08:22:57;;;;;;;9.85;8.35;;;19.80;99.90;;;;;;7294408;32;20104;-56
2023/09/17 08:26:59;;;;;;;9.77;7.40;;;19.90;99.90;;;;;;7295217;32;20123;-56
2023/09/17 08:31:01;;;;;;;9.50;7.12;;;20.00;99.90;;;;;;7293563;32;20211;-57
2023/09/17 08:35:03;;;;;;;7.45;6.70;;;20.30;99.90;;;;;;7301716;32;20304;-56
2023/09/17 08:39:06;;;;;;;8.30;5.75;;;20.70;99.90;;;;;;7304514;32;20108;-56
2023/09/17 08:43:09;;;;;;;8.05;5.18;;;21.20;99.90;;;;;;7305942;32;20174;-56
2023/09/17 08:47:11;;;;;;;6.37;4.78;;;21.60;99.90;;;;;;7301378;32;20905;-56
2023/09/17 08:51:15;;;;;;;7.97;5.18;;;21.60;99.90;;;;;;7293493;32;20688;-56
2023/09/17 08:55:17;;;;;;;6.68;4.70;;;21.80;99.90;;;;;;7296729;32;20198;-57
2023/09/17 08:59:24;;;;;;;5.65;4.65;;;21.90;99.90;;;;;;7299929;32;20500;-56
2023/09/17 09:03:27;;;;;;;7.78;4.72;;;22.00;99.90;;;;;;7304071;32;20175;-56
2023/09/17 09:07:30;;;;;;;7.18;5.03;;;22.30;99.90;;;;;;7302206;32;20178;-57
2023/09/17 09:11:36;;;;;;;5.93;3.70;;;22.90;99.90;;;;;;7297643;32;20289;-56
2023/09/17 09:15:39;;;;;;;6.40;4.00;;;23.20;99.90;;;;;;7304728;32;20277;-56
2023/09/17 09:19:41;;;;;;;4.82;3.97;;;23.50;99.90;;;;;;7313970;32;20210;-57
2023/09/17 09:23:42;;;;;;;7.12;4.32;;;23.60;99.90;;;;;;7313320;32;20171;-56
2023/09/17 09:27:44;;;;;;;9.85;4.15;;;23.60;99.90;;;;;;7301312;32;20112;-56
2023/09/17 09:31:46;;;;;;;5.82;4.07;;;23.70;99.90;;;;;;7307325;32;20123;-57
2023/09/17 09:35:49;;;;;;;6.95;3.80;;;23.40;99.90;;;;;;7315050;32;20475;-57
2023/09/17 09:39:50;;;;;;;5.85;3.92;;;23.40;99.90;;;;;;7299462;32;20560;-57
2023/09/17 09:43:53;;;;;;;7.70;4.20;;;23.90;99.90;;;;;;7306890;32;20238;-57
2023/09/17 09:47:56;;;;;;;5.05;2.90;;;24.50;99.90;;;;;;7297114;32;20113;-57
2023/09/17 09:51:59;;;;;;;5.85;3.10;;;25.80;99.90;;;;;;7295759;32;20231;-57
2023/09/17 09:56:03;;;;;;;5.35;3.42;;;26.80;99.90;;;;;;7301666;32;20259;-55
2023/09/17 10:00:10;;;;;;;4.37;3.00;;;27.60;99.90;;;;;;7297110;32;20609;-57
2023/09/17 10:04:12;;;;;;;3.67;2.50;;;28.40;99.90;;;;;;7303347;32;20207;-57
2023/09/17 10:08:17;;;;;;;3.17;2.55;;;29.60;99.90;;;;;;7289317;32;20103;-56
2023/09/17 10:12:20;;;;;;;5.35;2.47;;;29.80;99.90;;;;;;7294769;32;20212;-56
2023/09/17 10:16:22;;;;;;;4.10;2.40;;;29.30;99.90;;;;;;7298812;32;20177;-56
2023/09/17 10:20:24;;;;;;;5.40;2.80;;;29.10;99.90;;;;;;7288002;32;20134;-56
2023/09/17 10:24:28;;;;;;;4.62;2.30;;;29.10;99.90;;;;;;7296331;32;20099;-57
2023/09/17 10:28:32;;;;;;;3.95;2.10;;;29.40;99.90;;;;;;7303743;32;20191;-56
2023/09/17 10:32:34;;;;;;;3.65;2.20;;;29.20;99.90;;;;;;7296469;32;20207;-57
2023/09/17 10:36:38;;;;;;;4.93;2.70;;;29.10;99.90;;;;;;7298516;32;20242;-56
2023/09/17 10:40:41;;;;;;;3.60;2.05;;;28.70;99.90;;;;;;7298722;32;20110;-55
2023/09/17 10:44:44;;;;;;;3.62;2.20;;;28.60;99.90;;;;;;7299277;32;20104;-56
2023/09/17 10:48:47;;;;;;;4.37;2.30;;;28.30;99.90;;;;;;7300855;32;20565;-57
2023/09/17 10:52:49;;;;;;;4.20;2.47;;;28.40;99.90;;;;;;7298751;32;20109;-56
2023/09/17 10:56:55;;;;;;;6.45;2.40;;;28.30;99.90;;;;;;7298249;32;20111;-57
2023/09/17 11:00:59;;;;;;;3.22;2.55;;;27.60;99.90;;;;;;7298527;32;20153;-56
2023/09/17 11:05:04;;;;;;;5.62;2.30;;;27.10;99.90;;;;;;7301256;32;20202;-56
2023/09/17 11:09:06;;;;;;;3.83;2.60;;;27.20;99.90;;;;;;7297319;32;20319;-54
2023/09/17 11:13:13;;;;;;;4.50;2.62;;;26.90;99.90;;;;;;7293008;32;20723;-56
2023/09/17 11:17:18;;;;;;;3.40;2.90;;;27.50;99.90;;;;;;7298955;32;20206;-55
2023/09/17 11:21:20;;;;;;;4.40;2.97;;;27.60;99.90;;;;;;7293780;32;20276;-57
2023/09/17 11:25:34;;;;;;;3.75;3.12;;;27.20;99.90;;;;;;7295519;32;20161;-56
2023/09/17 11:29:40;;;;;;;6.03;2.92;;;26.80;99.90;;;;;;7290707;32;20184;-56
2023/09/17 11:33:43;;;;;;;4.18;3.17;;;26.60;99.90;;;;;;7293911;32;20433;-56
2023/09/17 11:37:45;;;;;;;4.43;3.30;;;26.00;99.90;;;;;;7296585;32;20211;-56
2023/09/17 11:42:02;;;;;;;7.03;3.80;;;26.10;99.90;;;;;;7302601;32;20169;-58
2023/09/17 11:46:07;;;;;;;4.68;3.35;;;25.60;99.90;;;;;;7298961;32;20101;-57
2023/09/17 11:50:10;;;;;;;4.78;3.40;;;25.30;99.90;;;;;;7298708;32;20578;-56
2023/09/17 11:54:23;;;;;;;4.45;3.10;;;25.30;99.90;;;;;;7303539;32;20194;-57
2023/09/17 11:58:27;;;;;;;5.32;3.50;;;25.60;99.90;;;;;;7301228;32;20226;-57
2023/09/17 12:02:29;;;;;;;5.43;3.65;;;25.70;99.90;;;;;;7295976;32;20473;-57
2023/09/17 12:06:34;;;;;;;3.75;2.90;;;25.80;99.90;;;;;;7293349;32;20372;-57
2023/09/17 12:10:43;;;;;;;4.60;3.15;;;25.70;99.90;;;;;;7294017;32;20186;-56
2023/09/17 12:14:47;;;;;;;3.53;2.92;;;25.60;99.90;;;;;;7298919;32;20096;-56
2023/09/17 12:18:50;;;;;;;5.03;2.95;;;25.60;99.90;;;;;;7295938;32;20237;-56
2023/09/17 12:23:08;;;;;;;4.25;2.55;;;25.70;99.90;;;;;;7294470;32;20108;-57
2023/09/17 12:27:29;;;;;;;5.50;3.00;;;25.90;99.90;;;;;;7299939;32;20173;-57
2023/09/17 12:31:31;;;;;;;4.62;2.58;;;26.00;99.90;;;;;;7301725;32;20217;-56
2023/09/17 12:35:35;;;;;;;4.07;2.75;;;25.80;99.90;;;;;;7300021;32;20191;-56
2023/09/17 12:39:36;;;;;;;4.45;2.70;;;25.70;99.90;;;;;;7296856;32;20096;-53
2023/09/17 12:43:39;;;;;;;3.58;2.83;;;25.80;99.90;;;;;;7303782;32;20179;-56
2023/09/17 12:47:41;;;;;;;3.85;3.42;;;25.90;99.90;;;;;;7296071;32;20757;-58
2023/09/17 12:51:43;;;;;;;4.53;2.83;;;26.20;99.90;;;;;;7295012;32;20226;-57
2023/09/17 12:55:45;;;;;;;4.30;2.70;;;26.30;99.90;;;;;;7297627;32;20265;-57
2023/09/17 12:59:50;;;;;;;2.85;2.53;;;26.10;99.90;;;;;;7298032;32;20402;-57
2023/09/17 13:03:56;;;;;;;4.12;2.55;;;26.00;99.90;;;;;;7300115;32;20206;-56
2023/09/17 13:07:58;;;;;;;3.17;2.25;;;26.00;99.90;;;;;;7303550;32;20159;-57
2023/09/17 13:12:00;;;;;;;3.87;2.33;;;25.80;99.90;;;;;;7300219;32;20104;-56
2023/09/17 13:16:02;;;;;;;3.47;2.40;;;25.60;99.90;;;;;;7297453;32;20229;-57
2023/09/17 13:20:05;;;;;;;3.35;2.30;;;25.50;99.90;;;;;;7298012;32;20522;-57
2023/09/17 13:24:09;;;;;;;4.03;2.70;;;25.30;99.90;;;;;;7301522;32;20257;-55
2023/09/17 13:28:16;;;;;;;2.85;2.33;;;25.30;99.90;;;;;;7294906;32;20551;-56
2023/09/17 13:32:18;;;;;;;;;;;25.30;99.90;;;;;;7307169;32;20108;-55
2023/09/17 13:36:20;;;;;;;3.50;2.33;;;25.30;99.90;;;;;;7300762;32;20594;-56
2023/09/17 13:40:23;;;;;;;3.00;2.53;;;25.50;99.90;;;;;;7296837;32;20286;-55
2023/09/17 13:44:24;;;;;;;2.40;2.20;;;25.50;99.90;;;;;;7300410;32;20121;-55
2023/09/17 13:48:27;;;;;;;3.37;2.30;;;25.60;99.90;;;;;;7306666;32;20203;-55
2023/09/17 13:52:28;;;;;;;2.95;2.65;;;25.50;99.90;;;;;;7295208;32;20226;-56
2023/09/17 13:56:30;;;;;;;4.28;2.85;;;25.60;99.90;;;;;;7314502;32;20236;-56
2023/09/17 14:00:32;;;;;;;4.53;2.80;;;25.60;99.90;;;;;;7308772;32;20217;-56
2023/09/17 14:04:34;;;;;;;3.67;2.12;;;25.50;99.90;;;;;;7297997;32;20218;-55
2023/09/17 14:08:36;;;;;;;3.25;2.20;;;25.50;99.90;;;;;;7316635;32;20503;-56
2023/09/17 14:12:37;;;;;;;6.75;2.10;;;25.40;99.90;;;;;;7309507;32;20154;-56
2023/09/17 14:16:39;;;;;;;2.78;2.22;;;25.40;99.90;;;;;;7306516;32;20535;-55
2023/09/17 14:20:41;;;;;;;3.83;2.50;;;25.30;99.90;;;;;;7300923;32;20191;-56
2023/09/17 14:24:43;;;;;;;4.75;2.70;;;25.40;99.90;;;;;;7299445;32;20209;-57
2023/09/17 14:28:45;;;;;;;3.58;2.50;;;25.50;99.90;;;;;;7300300;32;20117;-56
2023/09/17 14:32:50;;;;;;;4.72;2.60;;;25.50;99.90;;;;;;7296199;32;20162;-56
2023/09/17 14:36:52;;;;;;;2.62;2.40;;;25.50;99.90;;;;;;7300833;32;20201;-56
2023/09/17 14:40:54;;;;;;;4.07;2.33;;;25.50;99.90;;;;;;7299746;32;20194;-56
2023/09/17 14:44:56;;;;;;;2.60;2.40;;;25.40;99.90;;;;;;7297348;32;20118;-56
2023/09/17 14:48:57;;;;;;;4.03;2.33;;;25.30;99.90;;;;;;7299479;32;20210;-56
2023/09/17 14:52:59;;;;;;;3.55;2.30;;;25.30;99.90;;;;;;7294562;32;20270;-56
2023/09/17 14:57:01;;;;;;;3.25;2.10;;;25.30;99.90;;;;;;7294553;32;20120;-56
2023/09/17 15:01:03;;;;;;;3.10;2.15;;;25.20;99.90;;;;;;7306076;32;20175;-58
2023/09/17 15:05:07;;;;;;;3.40;2.53;;;25.10;99.90;;;;;;7302849;32;20203;-58
2023/09/17 15:09:09;;;;;;;2.80;2.40;;;25.10;99.90;;;;;;7298581;32;20186;-57
2023/09/17 15:13:11;;;;;;;2.45;1.90;;;25.00;99.90;;;;;;7307532;32;20121;-57
2023/09/17 15:17:12;;;;;;;2.90;2.22;;;24.90;99.90;;;;;;7308392;32;20191;-57
2023/09/17 15:21:14;;;;;;;3.33;2.50;;;24.90;99.90;;;;;;7302139;32;20108;-57
2023/09/17 15:25:16;;;;;;;2.67;2.28;;;24.70;99.90;;;;;;7311404;32;20197;-55
2023/09/17 15:29:18;;;;;;;3.97;2.40;;;24.60;99.90;;;;;;7310885;32;20100;-56
2023/09/17 15:33:20;;;;;;;3.00;2.62;;;24.60;99.90;;;;;;7305177;32;20215;-56
2023/09/17 15:37:23;;;;;;;3.67;2.50;;;24.60;99.90;;;;;;7306530;32;20191;-56
2023/09/17 15:41:27;;;;;;;3.97;3.10;;;24.60;99.90;;;;;;7300914;32;20404;-57
2023/09/17 15:45:29;;;;;;;3.30;2.55;;;24.50;99.90;;;;;;7312412;32;20101;-57
2023/09/17 15:49:31;;;;;;;4.70;2.85;;;24.50;99.90;;;;;;7313979;32;20127;-57
2023/09/17 15:53:32;;;;;;;5.20;2.87;;;24.40;99.90;;;;;;7304798;32;20589;-56
2023/09/17 15:57:34;;;;;;;5.05;3.30;;;24.40;99.90;;;;;;7307386;32;20779;-56
2023/09/17 16:01:38;;;;;;;9.80;3.25;;;24.20;99.90;;;;;;7302744;32;20548;-56
2023/09/17 16:05:41;;;;;;;7.15;2.85;;;24.20;99.90;;;;;;7305202;32;20177;-56
2023/09/17 16:09:43;;;;;;;3.47;2.67;;;24.10;99.90;;;;;;7292899;32;20218;-56
2023/09/17 16:13:44;;;;;;;4.00;3.40;;;24.00;99.90;;;;;;7290295;32;20199;-57
2023/09/17 16:17:50;;;;;;;4.62;3.30;;;23.90;99.90;;;;;;7309702;32;20790;-57
2023/09/17 16:21:51;;;;;;;3.45;2.95;;;23.80;99.90;;;;;;7297231;32;20119;-56
2023/09/17 16:25:53;;;;;;;3.53;3.20;;;23.80;99.90;;;;;;7295715;32;20177;-56
2023/09/17 16:29:55;;;;;;;5.18;3.60;;;23.70;99.90;;;;;;7298756;32;20873;-58
2023/09/17 16:33:57;;;;;;;4.47;3.50;;;23.60;99.90;;;;;;7293911;32;20123;-58
2023/09/17 16:37:59;;;;;;;3.60;3.30;;;23.70;99.90;;;;;;7295895;32;20238;-58
2023/09/17 16:42:00;;;;;;;3.65;3.35;;;23.50;99.90;;;;;;7302700;32;20179;-58
2023/09/17 16:46:02;;;;;;;4.57;4.00;;;23.20;99.90;;;;;;7300884;32;20162;-59
2023/09/17 16:50:04;;;;;;;6.25;3.53;;;23.20;99.90;;;;;;7301547;32;20238;-59
2023/09/17 16:54:06;;;;;;;6.03;3.90;;;23.10;99.90;;;;;;7295698;32;20225;-58
2023/09/17 16:58:08;;;;;;;6.65;3.90;;;23.00;99.90;;;;;;7309121;32;20478;-55
2023/09/17 17:02:10;;;;;;;5.87;3.60;;;22.90;99.90;;;;;;7307951;32;20108;-56
2023/09/17 17:06:12;;;;;;;5.70;4.00;;;22.70;99.90;;;;;;7286783;32;20263;-57
2023/09/17 17:10:14;;;;;;;5.32;3.78;;;22.60;99.90;;;;;;7305234;32;20104;-56
2023/09/17 17:14:16;;;;;;;6.40;4.10;;;22.40;99.90;;;;;;7299180;32;20495;-55
2023/09/17 17:18:18;;;;;;;10.25;4.00;;;22.30;99.90;;;;;;7296475;32;20119;-55
2023/09/17 17:22:20;;;;;;;5.07;4.07;;;22.10;99.90;;;;;;7308681;32;20168;-57
2023/09/17 17:26:21;;;;;;;7.68;4.55;;;21.90;99.90;;;;;;7299996;32;20127;-54
2023/09/17 17:30:24;;;;;;;8.32;5.10;;;21.70;99.90;;;;;;7306618;32;20593;-54
2023/09/17 17:34:26;;;;;;;5.93;4.65;;;21.70;99.90;;;;;;7298228;32;20103;-56
2023/09/17 17:38:29;;;;;;;5.32;4.37;;;21.60;99.90;;;;;;7302161;32;20109;-57
2023/09/17 17:42:31;;;;;;;7.35;4.75;;;21.40;99.90;;;;;;7302802;32;20178;-57
2023/09/17 17:46:33;;;;;;;6.00;4.30;;;21.40;99.90;;;;;;7298891;32;20158;-57
2023/09/17 17:50:34;;;;;;;8.40;4.65;;;21.20;99.90;;;;;;7310422;32;20104;-57
2023/09/17 17:54:36;;;;;;;6.28;4.55;;;21.10;99.90;;;;;;7306297;32;20783;-56
2023/09/17 17:58:38;;;;;;;9.27;5.47;;;21.00;99.90;;;;;;7313854;32;20111;-57
2023/09/17 18:02:41;;;;;;;5.68;4.15;;;20.80;99.90;;;;;;7300421;32;20096;-58
2023/09/17 18:06:43;;;;;;;7.60;4.40;;;20.60;99.90;;;;;;7302257;32;20641;-56
2023/09/17 18:10:45;;;;;;;7.35;4.90;;;20.50;99.90;;;;;;7299944;32;20287;-57
2023/09/17 18:14:47;;;;;;;6.70;4.53;;;20.50;99.90;;;;;;7298927;32;20229;-56
2023/09/17 18:18:49;;;;;;;8.02;4.82;;;20.50;99.90;;;;;;7301894;32;20100;-56
2023/09/17 18:22:51;;;;;;;7.12;4.87;;;20.30;99.90;;;;;;7301791;32;20223;-56
2023/09/17 18:26:52;;;;;;;9.05;4.57;;;20.20;99.90;;;;;;7299705;32;20122;-56
2023/09/17 18:30:55;;;;;;;8.60;5.18;;;20.10;99.90;;;;;;7298673;32;20965;-56
2023/09/17 18:34:57;;;;;;;6.62;4.85;;;20.00;99.90;;;;;;7290926;32;20556;-56
2023/09/17 18:38:58;;;;;;;5.85;4.50;;;20.00;99.90;;;;;;7301008;32;20226;-55
2023/09/17 18:43:00;;;;;;;7.62;5.37;;;19.80;99.90;;;;;;7300774;32;20260;-55
2023/09/17 18:47:03;;;;;;;7.05;4.95;;;19.80;99.90;;;;;;7297257;32;20138;-56
2023/09/17 18:51:05;;;;;;;6.15;4.53;;;19.70;99.90;;;;;;7300406;32;20112;-55
2023/09/17 18:55:07;;;;;;;5.43;4.53;;;19.70;99.90;;;;;;7298778;32;20108;-55
2023/09/17 18:59:10;;;;;;;6.05;5.12;;;19.60;99.90;;;;;;7306710;32;20256;-55
2023/09/17 19:03:11;;;;;;;8.95;5.87;;;19.50;99.90;;;;;;7297079;32;20108;-55
2023/09/17 19:07:14;;;;;;;7.07;5.50;;;19.40;99.90;;;;;;7294100;32;20402;-56
2023/09/17 19:11:16;;;;;;;6.87;4.65;;;19.40;99.90;;;;;;7300935;32;20104;-56
2023/09/17 19:15:17;;;;;;;5.75;4.72;;;19.40;99.90;;;;;;7302129;32;20135;-56
2023/09/17 19:19:19;;;;;;;6.72;5.18;;;19.40;99.90;;;;;;7298519;32;20557;-56
2023/09/17 19:23:21;;;;;;;9.82;5.85;;;19.30;99.90;;;;;;7301604;32;20270;-57
2023/09/17 19:27:23;;;;;;;8.68;6.10;;;19.20;99.90;;;;;;7305739;32;20187;-59
2023/09/17 19:31:25;;;;;;;6.97;5.60;;;19.20;99.90;;;;;;7297995;32;20092;-55
2023/09/17 19:35:26;;;;;;;7.60;5.40;;;19.20;99.90;;;;;;7304523;32;20242;-56
2023/09/17 19:39:28;;;;;;;7.12;5.05;;;19.10;99.90;;;;;;7298500;32;20127;-55
2023/09/17 19:43:30;;;;;;;9.45;4.97;;;19.10;99.90;;;;;;7302888;32;20218;-56
2023/09/17 19:47:32;;;;;;;6.43;4.68;;;19.10;99.90;;;;;;7300418;32;20108;-55
2023/09/17 19:51:35;;;;;;;6.40;5.10;;;19.10;99.90;;;;;;7296114;32;20096;-56
2023/09/17 19:55:37;;;;;;;7.82;5.00;;;19.10;99.90;;;;;;7286811;32;20215;-56
2023/09/17 19:59:39;;;;;;;6.90;5.03;;;19.00;99.90;;;;;;7303647;32;20163;-55
2023/09/17 20:03:41;;;;;;;5.10;4.50;;;19.10;99.90;;;;;;7305788;32;20096;-56
2023/09/17 20:07:43;;;;;;;6.35;4.15;;;19.10;99.90;;;;;;7297968;32;20130;-56
2023/09/17 20:11:45;;;;;;;5.80;4.37;;;19.10;99.90;;;;;;7301872;32;20237;-56
2023/09/17 20:15:47;;;;;;;7.65;4.60;;;19.10;99.90;;;;;;7298838;32;20156;-55
2023/09/17 20:19:49;;;;;;;5.43;3.65;;;19.10;99.90;;;;;;7305869;32;20123;-55
2023/09/17 20:23:51;;;;;;;5.82;4.50;;;19.20;99.90;;;;;;7294843;32;20131;-55
2023/09/17 20:28:01;;;;;;;6.57;4.25;;;19.20;99.90;;;;;;7297396;32;20434;-55
2023/09/17 20:32:03;;;;;;;7.57;4.45;;;19.10;99.90;;;;;;7297946;32;20099;-55
2023/09/17 20:36:06;;;;;;;6.37;4.37;;;19.00;99.90;;;;;;7299478;32;20548;-55
2023/09/17 20:40:09;;;;;;;9.30;4.15;;;18.80;99.90;;;;;;7296968;32;20209;-55
2023/09/17 20:44:12;;;;;;;8.82;4.30;;;18.80;99.90;;;;;;7303176;32;20375;-54
2023/09/17 20:48:14;;;;;;;10.43;4.25;;;18.70;99.90;;;;;;7296164;32;20123;-54
2023/09/17 20:52:16;;;;;;;6.37;4.37;;;18.60;99.90;;;;;;7294107;32;20100;-55